createdAt,value
2017-11-09T00:02:00.820Z,23.97
2017-11-09T00:04:34.861Z,23.80
2017-11-09T00:16:42.555Z,22.17
2017-11-09T00:19:09.338Z,21.33
2017-11-09T00:21:35.653Z,22.37
2017-11-09T00:24:02.655Z,23.77
2017-11-09T00:26:33.529Z,19.93
2017-11-09T00:28:59.763Z,21.80
2017-11-09T00:31:26.607Z,21.13
2017-11-09T00:33:54.741Z,22.37
2017-11-09T00:36:22.852Z,22.17
2017-11-09T00:38:49.988Z,22.17
2017-11-09T00:41:16.165Z,20.77
2017-11-09T00:43:43.522Z,20.63
2017-11-09T00:46:12.913Z,21.40
2017-11-09T00:48:39.693Z,20.50
2017-11-09T00:51:06.687Z,21.87
2017-11-09T00:53:34.013Z,21.20
2017-11-09T00:56:01.055Z,21.23
2017-11-09T00:58:29.237Z,20.60
2017-11-09T01:00:56.165Z,23.37
2017-11-09T01:03:24.824Z,22.53
2017-11-09T01:05:52.399Z,21.43
2017-11-09T01:08:18.712Z,22.60
2017-11-09T01:10:46.420Z,21.80
2017-11-09T01:13:14.259Z,22.23
2017-11-09T01:15:40.473Z,24.27
2017-11-09T01:18:07.197Z,25.30
2017-11-09T01:20:34.382Z,24.57
2017-11-09T01:23:00.719Z,22.23
2017-11-09T01:25:27.668Z,22.80
2017-11-09T01:27:54.705Z,25.63
2017-11-09T01:30:20.901Z,23.53
2017-11-09T01:32:47.938Z,22.13
2017-11-09T01:35:15.839Z,24.90
2017-11-09T01:37:42.036Z,24.07
2017-11-09T01:40:09.343Z,25.17
2017-11-09T01:42:35.620Z,21.23
2017-11-09T01:45:02.565Z,22.37
2017-11-09T01:47:28.772Z,23.60
2017-11-09T01:49:54.961Z,22.47
2017-11-09T01:52:22.050Z,23.27
2017-11-09T01:54:50.064Z,23.07
2017-11-09T01:57:17.193Z,23.67
2017-11-09T01:59:43.802Z,22.90
2017-11-09T02:02:10.746Z,22.63
2017-11-09T02:04:37.276Z,21.30
2017-11-09T02:07:04.048Z,21.47
2017-11-09T02:09:30.638Z,22.20
2017-11-09T02:11:56.851Z,20.80
2017-11-09T02:14:24.714Z,23.00
2017-11-09T02:16:51.169Z,21.13
2017-11-09T02:19:19.117Z,24.50
2017-11-09T02:21:45.321Z,21.10
2017-11-09T02:24:11.511Z,21.00
2017-11-09T02:26:38.513Z,20.23
2017-11-09T02:29:05.548Z,22.80
2017-11-09T02:31:31.757Z,21.60
2017-11-09T02:33:58.301Z,21.80
2017-11-09T02:36:25.708Z,21.27
2017-11-09T02:38:52.480Z,22.80
2017-11-09T02:41:19.444Z,22.00
2017-11-09T02:43:45.688Z,22.23
2017-11-09T02:46:11.898Z,23.70
2017-11-09T02:48:39.123Z,20.77
2017-11-09T02:51:05.796Z,22.63
2017-11-09T02:53:31.984Z,22.63
2017-11-09T02:55:58.864Z,23.43
2017-11-09T02:58:25.065Z,21.50
2017-11-09T03:00:51.264Z,23.70
2017-11-09T03:03:18.363Z,23.30
2017-11-09T03:05:45.555Z,23.90
2017-11-09T03:08:11.779Z,22.37
2017-11-09T03:10:38.526Z,23.63
2017-11-09T03:13:05.153Z,25.30
2017-11-09T03:15:31.353Z,24.30
2017-11-09T03:17:57.755Z,23.90
2017-11-09T03:20:23.948Z,23.87
2017-11-09T03:22:50.880Z,23.67
2017-11-09T03:25:18.064Z,23.47
2017-11-09T03:27:45.266Z,25.57
2017-11-09T03:30:12.107Z,26.70
2017-11-09T03:32:39.276Z,23.43
2017-11-09T03:35:09.238Z,23.30
2017-11-09T03:37:37.295Z,23.47
2017-11-09T03:40:03.602Z,23.90
2017-11-09T03:42:30.172Z,24.67
2017-11-09T03:44:58.705Z,23.00
2017-11-09T03:47:24.913Z,24.27
2017-11-09T03:49:51.397Z,23.17
2017-11-09T03:52:17.645Z,23.97
2017-11-09T03:54:43.831Z,24.60
2017-11-09T03:57:10.772Z,25.07
2017-11-09T03:59:37.022Z,23.20
2017-11-09T04:02:04.918Z,23.87
2017-11-09T04:04:32.046Z,22.80
2017-11-09T04:06:59.298Z,21.73
2017-11-09T04:09:25.756Z,22.43
2017-11-09T04:11:52.672Z,22.20
2017-11-09T04:14:18.962Z,21.93
2017-11-09T04:16:46.051Z,23.83
2017-11-09T04:19:12.448Z,22.83
2017-11-09T04:21:39.385Z,21.00
2017-11-09T04:24:06.635Z,21.03
2017-11-09T04:26:32.823Z,22.63
2017-11-09T04:29:00.027Z,22.97
2017-11-09T04:31:26.868Z,20.77
2017-11-09T04:33:53.092Z,21.30
2017-11-09T04:36:19.889Z,21.60
2017-11-09T04:38:46.059Z,21.80
2017-11-09T04:41:12.231Z,21.10
2017-11-09T04:43:38.377Z,19.20
2017-11-09T04:46:05.431Z,21.17
2017-11-09T04:48:31.614Z,20.67
2017-11-09T04:50:58.912Z,20.00
2017-11-09T04:53:25.085Z,21.80
2017-11-09T04:55:51.950Z,18.50
2017-11-09T04:58:18.566Z,20.57
2017-11-09T05:00:44.800Z,18.73
2017-11-09T05:03:12.792Z,20.73
2017-11-09T05:05:39.042Z,20.70
2017-11-09T05:08:05.251Z,21.10
2017-11-09T05:10:34.603Z,17.60
2017-11-09T05:13:01.085Z,18.30
2017-11-09T05:15:27.266Z,18.00
2017-11-09T05:17:54.264Z,17.10
2017-11-09T05:20:22.219Z,18.20
2017-11-09T05:22:48.482Z,17.10
2017-11-09T05:25:19.133Z,18.20
2017-11-09T05:27:50.610Z,20.20
2017-11-09T05:30:21.069Z,18.03
2017-11-09T05:32:50.512Z,16.70
2017-11-09T05:35:21.819Z,13.80
2017-11-09T05:37:50.787Z,13.13
2017-11-09T05:40:18.042Z,12.77
2017-11-09T05:42:46.372Z,11.33
2017-11-09T05:45:14.678Z,9.50
2017-11-09T05:47:43.780Z,9.53
2017-11-09T05:50:10.963Z,9.70
2017-11-09T05:52:39.921Z,10.70
2017-11-09T05:55:08.623Z,9.70
2017-11-09T05:57:37.154Z,8.37
2017-11-09T06:00:06.755Z,10.43
2017-11-09T06:02:34.334Z,8.80
2017-11-09T06:05:03.898Z,8.23
2017-11-09T06:07:30.674Z,7.40
2017-11-09T06:09:56.897Z,8.27
2017-11-09T06:12:24.629Z,9.00
2017-11-09T06:14:50.882Z,7.87
2017-11-09T06:17:17.162Z,8.30
2017-11-09T06:19:44.363Z,8.20
2017-11-09T06:22:10.566Z,8.13
2017-11-09T06:24:36.936Z,10.50
2017-11-09T06:27:05.921Z,9.20
2017-11-09T06:29:32.079Z,10.17
2017-11-09T06:31:58.663Z,10.60
2017-11-09T06:34:26.207Z,12.63
2017-11-09T06:36:53.589Z,12.83
2017-11-09T06:39:22.768Z,13.50
2017-11-09T06:41:50.177Z,14.50
2017-11-09T06:44:18.934Z,15.13
2017-11-09T06:46:46.460Z,17.10
2017-11-09T06:49:14.945Z,16.87
2017-11-09T06:51:46.359Z,17.00
2017-11-09T06:54:17.229Z,15.77
2017-11-09T06:56:43.936Z,17.00
2017-11-09T06:59:10.212Z,16.67
2017-11-09T07:01:36.472Z,15.73
2017-11-09T07:04:03.280Z,17.20
2017-11-09T07:06:29.899Z,18.43
2017-11-09T07:08:58.223Z,16.70
2017-11-09T07:11:24.416Z,17.60
2017-11-09T07:13:51.983Z,16.10
2017-11-09T07:16:24.620Z,16.40
2017-11-09T07:18:52.608Z,15.90
2017-11-09T07:21:21.375Z,14.80
2017-11-09T07:23:48.965Z,15.00
2017-11-09T07:26:15.198Z,14.70
2017-11-09T07:28:42.108Z,15.20
2017-11-09T07:31:10.544Z,13.80
2017-11-09T07:33:37.768Z,15.57
2017-11-09T07:36:04.018Z,12.97
2017-11-09T07:38:36.451Z,12.73
2017-11-09T07:41:03.074Z,14.87
2017-11-09T07:43:29.290Z,14.17
2017-11-09T07:45:57.595Z,15.60
2017-11-09T07:48:25.526Z,16.37
2017-11-09T07:50:54.716Z,15.83
2017-11-09T07:53:23.203Z,17.90
2017-11-09T07:55:49.439Z,16.40
2017-11-09T07:58:16.679Z,16.83
2017-11-09T08:00:42.945Z,17.07
2017-11-09T08:03:09.513Z,16.17
2017-11-09T08:05:35.708Z,16.13
2017-11-09T08:08:02.173Z,16.30
2017-11-09T08:10:29.189Z,16.90
2017-11-09T08:12:55.380Z,16.70
2017-11-09T08:15:22.240Z,16.90
2017-11-09T08:17:48.418Z,16.30
2017-11-09T08:20:14.651Z,17.30
2017-11-09T08:22:40.809Z,17.03
2017-11-09T08:25:09.881Z,18.43
2017-11-09T08:27:42.313Z,18.07
2017-11-09T08:30:17.100Z,19.53
2017-11-09T08:32:47.755Z,22.07
2017-11-09T08:35:14.051Z,19.13
2017-11-09T08:37:42.159Z,22.30
2017-11-09T08:40:08.349Z,21.13
2017-11-09T08:42:35.956Z,20.80
2017-11-09T08:45:03.608Z,20.73
2017-11-09T08:47:30.521Z,21.93
2017-11-09T08:49:57.614Z,22.20
2017-11-09T08:52:23.835Z,22.87
2017-11-09T08:54:50.051Z,24.00
2017-11-09T08:57:20.124Z,22.23
2017-11-09T08:59:46.348Z,23.37
2017-11-09T09:02:12.533Z,24.73
2017-11-09T09:04:38.753Z,22.97
2017-11-09T09:07:05.009Z,22.67
2017-11-09T09:09:31.224Z,23.77
2017-11-09T09:11:58.978Z,22.67
2017-11-09T09:14:25.216Z,26.53
2017-11-09T09:16:52.716Z,24.53
2017-11-09T09:19:19.342Z,23.43
2017-11-09T09:21:47.535Z,24.83
2017-11-09T09:24:28.670Z,26.47
2017-11-09T09:26:58.753Z,23.90
2017-11-09T09:32:24.551Z,26.37
2017-11-09T09:35:08.410Z,23.43
2017-11-09T09:37:38.253Z,24.07
2017-11-09T09:40:05.427Z,24.20
2017-11-09T09:42:33.236Z,24.13
2017-11-09T09:44:59.436Z,22.93
2017-11-09T09:47:26.052Z,23.13
2017-11-09T09:49:53.102Z,22.20
2017-11-09T09:52:20.379Z,24.53
2017-11-09T09:54:46.625Z,23.47
2017-11-09T09:57:12.901Z,24.63
2017-11-09T09:59:39.104Z,24.30
2017-11-09T10:02:05.958Z,23.33
2017-11-09T10:04:32.556Z,24.23
2017-11-09T10:06:58.773Z,22.43
2017-11-09T10:09:25.854Z,23.40
2017-11-09T10:11:52.090Z,20.10
2017-11-09T10:14:18.331Z,18.23
2017-11-09T10:16:45.070Z,16.10
2017-11-09T10:19:11.314Z,20.20
2017-11-09T10:21:39.144Z,16.50
2017-11-09T10:24:05.327Z,16.43
2017-11-09T10:26:31.512Z,15.43
2017-11-09T10:28:58.585Z,17.20
2017-11-09T10:31:26.748Z,14.90
2017-11-09T10:33:53.295Z,15.93
2017-11-09T10:36:19.511Z,14.80
2017-11-09T10:38:47.588Z,15.47
2017-11-09T10:41:14.140Z,15.90
2017-11-09T10:43:40.963Z,14.83
2017-11-09T10:46:07.194Z,14.17
2017-11-09T10:48:33.779Z,15.43
2017-11-09T10:50:59.988Z,17.13
2017-11-09T10:53:26.883Z,18.00
2017-11-09T10:55:54.435Z,17.10
2017-11-09T10:58:20.710Z,17.87
2017-11-09T11:00:47.332Z,16.80
2017-11-09T11:03:16.193Z,16.73
2017-11-09T11:05:42.481Z,18.43
2017-11-09T11:08:09.898Z,15.63
2017-11-09T11:10:36.208Z,16.00
2017-11-09T11:13:03.431Z,18.00
2017-11-09T11:15:29.652Z,16.60
2017-11-09T11:17:58.323Z,17.20
2017-11-09T11:20:24.525Z,16.93
2017-11-09T11:22:53.795Z,19.30
2017-11-09T11:25:20.572Z,20.23
2017-11-09T11:27:47.706Z,22.30
2017-11-09T11:30:13.983Z,22.30
2017-11-09T11:32:40.205Z,25.50
2017-11-09T11:35:06.988Z,27.27
2017-11-09T11:37:34.257Z,26.77
2017-11-09T11:40:02.140Z,29.97
2017-11-09T11:42:30.244Z,29.57
2017-11-09T11:44:57.159Z,29.37
2017-11-09T11:47:23.386Z,28.77
2017-11-09T11:49:52.300Z,28.83
2017-11-09T11:52:19.671Z,28.07
2017-11-09T11:54:46.312Z,28.70
2017-11-09T11:57:12.564Z,28.97
2017-11-09T11:59:41.439Z,29.27
2017-11-09T12:02:10.283Z,29.57
2017-11-09T12:04:38.152Z,20.07
2017-11-09T12:07:04.402Z,13.60
2017-11-09T12:09:31.537Z,14.30
2017-11-09T12:12:00.543Z,13.43
2017-11-09T12:14:26.850Z,15.97
2017-11-09T12:16:53.105Z,16.67
2017-11-09T12:19:19.347Z,17.13
2017-11-09T12:21:45.835Z,23.50
2017-11-09T12:24:12.296Z,19.87
2017-11-09T12:26:38.583Z,20.40
2017-11-09T12:29:04.816Z,20.53
2017-11-09T12:31:31.027Z,20.70
2017-11-09T12:33:57.255Z,25.60
2017-11-09T12:36:24.016Z,27.43
2017-11-09T12:38:50.270Z,21.80
2017-11-09T12:41:16.993Z,22.40
2017-11-09T12:43:44.953Z,21.10
2017-11-09T12:46:11.708Z,23.70
2017-11-09T12:48:39.504Z,28.97
2017-11-09T12:51:06.552Z,25.47
2017-11-09T13:03:13.502Z,24.37
2017-11-09T13:05:40.467Z,26.37
2017-11-09T13:08:09.112Z,26.03
2017-11-09T13:10:36.190Z,24.00
2017-11-09T13:13:02.483Z,24.50
2017-11-09T13:15:29.302Z,22.50
2017-11-09T13:17:55.523Z,27.00
2017-11-09T13:20:22.754Z,25.50
2017-11-09T13:22:49.782Z,25.30
2017-11-09T13:25:16.006Z,26.80
2017-11-09T13:27:42.288Z,24.60
2017-11-09T13:30:09.329Z,25.67
2017-11-09T13:32:35.569Z,27.30
2017-11-09T13:35:01.768Z,25.37
2017-11-09T13:37:28.146Z,27.20
2017-11-09T13:39:54.712Z,25.07
2017-11-09T13:42:20.911Z,27.00
2017-11-09T13:44:47.327Z,25.53
2017-11-09T13:47:13.598Z,25.03
2017-11-09T13:49:39.849Z,25.33
2017-11-09T13:52:08.624Z,26.23
2017-11-09T13:54:34.841Z,26.63
2017-11-09T13:57:01.096Z,23.93
2017-11-09T13:59:27.432Z,24.43
2017-11-09T14:01:53.629Z,24.83
2017-11-09T14:04:20.613Z,22.97
2017-11-09T14:06:46.893Z,24.23
2017-11-09T14:09:14.805Z,23.93
2017-11-09T14:11:41.749Z,21.57
2017-11-09T14:14:07.937Z,22.00
2017-11-09T14:16:34.513Z,21.70
2017-11-09T14:19:02.190Z,22.17
2017-11-09T14:21:28.808Z,21.00
2017-11-09T14:23:55.112Z,21.47
2017-11-09T14:26:23.271Z,23.80
2017-11-09T14:28:49.493Z,20.10
2017-11-09T14:31:15.782Z,21.43
2017-11-09T14:33:41.957Z,23.90
2017-11-09T14:36:08.158Z,24.33
2017-11-09T14:38:36.262Z,21.70
2017-11-09T14:41:02.655Z,21.40
2017-11-09T14:43:28.890Z,21.17
2017-11-09T14:45:55.137Z,22.13
2017-11-09T14:48:21.308Z,23.07
2017-11-09T14:50:47.541Z,23.83
2017-11-09T14:53:13.889Z,22.73
2017-11-09T14:55:40.242Z,23.17
2017-11-09T14:58:07.250Z,22.80
2017-11-09T15:00:33.468Z,23.10
2017-11-09T15:02:59.952Z,22.63
2017-11-09T15:05:26.137Z,23.53
2017-11-09T15:07:53.132Z,20.30
2017-11-09T15:10:19.317Z,21.83
2017-11-09T15:12:46.575Z,18.67
2017-11-09T15:15:12.829Z,19.80
2017-11-09T15:17:40.226Z,22.90
2017-11-09T15:20:06.532Z,21.20
2017-11-09T15:22:33.167Z,21.27
2017-11-09T15:25:01.143Z,20.77
2017-11-09T15:27:28.345Z,21.60
2017-11-09T15:29:55.363Z,21.73
2017-11-09T15:32:24.494Z,21.43
2017-11-09T15:34:50.794Z,20.73
2017-11-09T15:37:17.736Z,22.50
2017-11-09T15:39:43.975Z,20.77
2017-11-09T15:42:10.432Z,19.67
2017-11-09T15:44:38.006Z,21.83
2017-11-09T15:47:06.016Z,21.00
2017-11-09T15:49:32.241Z,20.60
2017-11-09T15:51:59.349Z,20.93
2017-11-09T15:54:25.620Z,19.90
2017-11-09T15:56:52.948Z,19.10
2017-11-09T15:59:19.929Z,16.97
2017-11-09T16:01:46.237Z,17.77
2017-11-09T16:04:12.479Z,19.80
2017-11-09T16:06:45.163Z,21.17
2017-11-09T16:09:11.681Z,19.00
2017-11-09T16:11:37.898Z,20.10
2017-11-09T16:14:05.709Z,20.80
2017-11-09T16:16:36.271Z,20.67
2017-11-09T16:19:03.551Z,21.10
2017-11-09T16:21:38.004Z,20.57
2017-11-09T16:24:04.305Z,20.80
2017-11-09T16:26:30.601Z,18.30
2017-11-09T16:29:03.082Z,19.10
2017-11-09T16:31:29.411Z,17.37
2017-11-09T16:33:55.638Z,18.20
2017-11-09T16:36:21.857Z,19.10
2017-11-09T16:38:48.086Z,19.60
2017-11-09T16:41:14.339Z,17.23
2017-11-09T16:43:41.798Z,18.57
2017-11-09T16:46:08.675Z,17.57
2017-11-09T16:48:34.920Z,19.27
2017-11-09T16:51:01.252Z,17.13
2017-11-09T16:53:27.583Z,16.63
2017-11-09T17:08:43.862Z,17.07
2017-11-09T17:11:10.816Z,17.03
2017-11-09T17:13:37.195Z,17.10
2017-11-09T17:16:04.449Z,17.73
2017-11-09T17:18:33.549Z,18.00
2017-11-09T17:20:59.949Z,17.03
2017-11-09T17:23:26.268Z,20.87
2017-11-09T17:25:53.790Z,18.17
2017-11-09T17:28:20.833Z,18.10
2017-11-09T17:30:47.430Z,16.03
2017-11-09T17:33:14.400Z,18.10
2017-11-09T17:35:40.664Z,21.23
2017-11-09T17:38:06.878Z,19.57
2017-11-09T17:40:33.715Z,19.00
2017-11-09T17:42:59.976Z,20.40
2017-11-09T17:45:27.048Z,21.10
2017-11-09T17:47:53.631Z,20.63
2017-11-09T17:50:19.930Z,20.10
2017-11-09T17:52:49.214Z,20.17
2017-11-09T17:55:15.420Z,20.47
2017-11-09T17:57:41.633Z,18.80
2017-11-09T18:00:17.105Z,18.03
2017-11-09T18:02:44.482Z,18.90
2017-11-09T18:05:10.675Z,19.03
2017-11-09T18:07:37.587Z,22.10
2017-11-09T18:10:04.469Z,19.80
2017-11-09T18:22:11.880Z,20.03
2017-11-09T18:24:38.820Z,17.67
2017-11-09T18:27:05.892Z,20.13
2017-11-09T18:29:33.045Z,17.63
2017-11-09T18:32:00.284Z,19.17
2017-11-09T18:34:26.493Z,18.37
2017-11-09T18:36:53.499Z,18.73
2017-11-09T18:39:20.661Z,17.07
2017-11-09T18:41:48.339Z,18.73
2017-11-09T18:44:14.809Z,17.27
2017-11-09T18:46:42.788Z,18.47
2017-11-09T18:49:11.998Z,17.63
2017-11-09T18:54:30.380Z,16.70
2017-11-09T18:56:56.921Z,17.27
2017-11-09T18:59:23.989Z,17.53
2017-11-09T19:01:51.072Z,18.80
2017-11-09T19:04:19.191Z,17.50
2017-11-09T19:06:45.441Z,18.10
2017-11-09T19:09:11.735Z,17.23
2017-11-09T19:11:38.998Z,19.00
2017-11-09T19:14:05.245Z,15.90
2017-11-09T19:16:31.854Z,16.93
2017-11-09T19:18:58.509Z,19.03
2017-11-09T19:21:24.766Z,18.63
2017-11-09T19:23:51.024Z,18.30
2017-11-09T19:26:17.324Z,16.90
2017-11-09T19:28:43.853Z,17.20
2017-11-09T19:31:11.122Z,17.20
2017-11-09T19:33:37.337Z,19.80
2017-11-09T19:36:03.575Z,16.50
2017-11-09T19:38:29.827Z,19.40
2017-11-09T19:40:56.013Z,17.73
2017-11-09T19:43:22.656Z,18.77
2017-11-09T19:45:48.907Z,17.30
2017-11-09T19:48:15.292Z,21.57
2017-11-09T19:50:41.614Z,19.47
2017-11-09T19:53:10.483Z,19.20
2017-11-09T19:55:37.267Z,18.60
2017-11-09T19:58:03.680Z,19.03
2017-11-09T20:00:30.373Z,21.13
2017-11-09T20:02:56.811Z,16.93
2017-11-09T20:05:23.355Z,17.70
2017-11-09T20:07:50.692Z,17.30
2017-11-09T20:10:19.072Z,17.83
2017-11-09T20:12:45.799Z,18.07
2017-11-09T20:15:12.131Z,18.70
2017-11-09T20:27:20.026Z,20.03
2017-11-09T20:29:46.307Z,19.17
2017-11-09T20:32:13.224Z,19.90
2017-11-09T20:34:42.015Z,21.93
2017-11-09T20:37:08.423Z,19.13
2017-11-09T20:39:35.400Z,17.00
2017-11-09T20:42:03.064Z,18.37
2017-11-09T20:44:29.607Z,18.70
2017-11-09T20:46:56.462Z,19.10
2017-11-09T20:49:23.621Z,18.57
2017-11-09T20:51:50.755Z,16.93
2017-11-09T20:54:19.590Z,18.33
2017-11-09T20:56:46.708Z,18.43
2017-11-09T20:59:13.099Z,19.23
2017-11-09T21:01:40.164Z,18.87
2017-11-09T21:04:07.123Z,20.93
2017-11-09T21:06:33.361Z,20.70
2017-11-09T21:09:02.018Z,21.20
2017-11-09T21:11:30.788Z,20.50
2017-11-09T21:13:57.032Z,18.60
2017-11-09T21:16:23.262Z,18.33
2017-11-09T21:18:49.501Z,18.93
2017-11-09T21:21:15.761Z,20.13
2017-11-09T21:23:42.016Z,19.73
2017-11-09T21:26:08.263Z,20.50
2017-11-09T21:28:36.953Z,21.83
2017-11-09T21:31:03.226Z,19.47
2017-11-09T21:33:29.903Z,19.10
2017-11-09T21:35:57.230Z,19.30
2017-11-09T21:38:24.225Z,18.50
2017-11-09T21:40:50.551Z,19.60
2017-11-09T21:43:16.813Z,17.70
2017-11-09T21:45:43.510Z,18.83
2017-11-09T21:48:10.129Z,19.20
2017-11-09T21:50:37.184Z,19.80
2017-11-09T21:53:04.374Z,21.40
2017-11-09T21:55:31.781Z,18.40
2017-11-09T21:57:58.207Z,19.60
2017-11-09T22:00:27.529Z,19.70
2017-11-09T22:02:53.770Z,19.53
2017-11-09T22:05:20.050Z,19.57
2017-11-09T22:07:46.426Z,21.90
2017-11-09T22:10:14.143Z,19.53
2017-11-09T22:12:44.180Z,19.60
2017-11-09T22:15:10.633Z,18.90
2017-11-09T22:17:36.844Z,18.93
2017-11-09T22:20:03.109Z,19.67
2017-11-09T22:22:29.413Z,18.77
2017-11-09T22:24:55.652Z,20.10
2017-11-09T22:27:21.939Z,18.23
2017-11-09T22:29:48.159Z,20.47
2017-11-09T22:32:14.422Z,18.97
2017-11-09T22:34:40.642Z,19.33
2017-11-09T22:37:06.940Z,20.47
2017-11-09T22:39:33.853Z,18.63
2017-11-09T22:42:00.153Z,20.53
2017-11-09T22:44:26.767Z,20.20
2017-11-09T22:46:52.971Z,18.30
2017-11-09T22:49:19.225Z,17.60
2017-11-09T22:51:46.134Z,20.33
2017-11-09T22:54:12.836Z,19.90
2017-11-09T22:56:40.014Z,18.40
2017-11-09T22:59:06.267Z,17.57
2017-11-09T23:01:32.452Z,19.47
2017-11-09T23:03:58.917Z,20.80
2017-11-09T23:16:05.155Z,19.60
2017-11-09T23:18:31.383Z,22.03
2017-11-09T23:21:00.205Z,20.93
2017-11-09T23:23:26.638Z,20.40
2017-11-09T23:25:52.873Z,20.30
2017-11-09T23:28:19.071Z,21.47
2017-11-09T23:30:45.340Z,19.97
2017-11-09T23:33:11.578Z,20.00
2017-11-09T23:35:38.518Z,20.20
2017-11-09T23:38:06.222Z,21.63
2017-11-09T23:40:32.698Z,21.00
2017-11-09T23:43:01.817Z,21.93
2017-11-09T23:45:28.245Z,18.57
2017-11-09T23:47:54.511Z,19.30
2017-11-09T23:50:22.073Z,20.43
2017-11-09T23:52:48.244Z,22.10
2017-11-09T23:55:14.494Z,22.70
2017-11-09T23:57:40.776Z,19.73
